Time;durP1;ratioP1;P1;durP2;ratioP2;P2;SDS_P1;SDS_P2;PMS_P1;PMS_P2;Temp;Humidity;BMP_temperature;BMP_pressure;BME280_temperature;BME280_humidity;BME280_pressure;Samples;Min_cycle;Max_cycle;Signal;HPM_P1;HPM_P2
2023/02/03 00:00:49;;;;;;;2.42;1.38;;;;;;;;;;5093954;28;20027;-84
2023/02/03 00:03:14;;;;;;;1.88;1.00;;;;;;;;;;5095568;28;20420;-85
2023/02/03 00:05:40;;;;;;;3.17;1.15;;;;;;;;;;5095013;28;20032;-84
2023/02/03 00:08:06;;;;;;;1.20;0.70;;;;;;;;;;5093127;28;20020;-84
2023/02/03 00:10:32;;;;;;;1.83;0.70;;;;;;;;;;5093920;28;20022;-84
2023/02/03 00:12:57;;;;;;;3.42;1.42;;;;;;;;;;5093918;28;20020;-84
2023/02/03 00:15:22;;;;;;;2.78;1.15;;;;;;;;;;5094969;28;20478;-84
2023/02/03 00:17:48;;;;;;;6.85;1.08;;;;;;;;;;5095201;28;20036;-84
2023/02/03 00:20:13;;;;;;;2.03;1.05;;;;;;;;;;5091366;28;20039;-84
2023/02/03 00:22:38;;;;;;;2.42;1.10;;;;;;;;;;5095271;28;20328;-84
2023/02/03 00:25:04;;;;;;;4.65;1.50;;;;;;;;;;5094693;28;20055;-84
2023/02/03 00:27:29;;;;;;;5.70;1.10;;;;;;;;;;5093201;28;20437;-84
2023/02/03 00:29:54;;;;;;;1.40;0.80;;;;;;;;;;5090153;28;20016;-84
2023/02/03 00:32:19;;;;;;;2.15;1.08;;;;;;;;;;5093637;28;20547;-84
2023/02/03 00:34:45;;;;;;;4.35;0.88;;;;;;;;;;5093434;28;20044;-84
2023/02/03 00:37:11;;;;;;;1.70;0.80;;;;;;;;;;5093549;28;20020;-84
2023/02/03 00:39:36;;;;;;;4.70;1.40;;;;;;;;;;5087424;28;20058;-84
2023/02/03 00:42:02;;;;;;;6.50;1.20;;;;;;;;;;5094493;28;20020;-84
2023/02/03 00:44:28;;;;;;;3.08;0.98;;;;;;;;;;5088056;28;20024;-84
2023/02/03 00:46:53;;;;;;;3.45;1.10;;;;;;;;;;5084752;28;20020;-84
2023/02/03 00:49:18;;;;;;;4.15;0.80;;;;;;;;;;5086785;28;20012;-84
2023/02/03 00:51:43;;;;;;;2.88;0.90;;;;;;;;;;5094914;28;20012;-84
2023/02/03 00:54:09;;;;;;;3.40;1.05;;;;;;;;;;5094235;28;20048;-84
2023/02/03 00:56:34;;;;;;;2.38;1.10;;;;;;;;;;5093039;28;20023;-85
2023/02/03 00:58:59;;;;;;;2.40;1.00;;;;;;;;;;5082184;28;20435;-84
2023/02/03 01:01:25;;;;;;;4.53;1.38;;;;;;;;;;5093244;28;20016;-84
2023/02/03 01:03:52;;;;;;;3.60;1.20;;;;;;;;;;5088480;28;20391;-84
2023/02/03 01:06:19;;;;;;;3.50;0.77;;;;;;;;;;5094390;28;20016;-84
2023/02/03 01:08:44;;;;;;;3.20;1.20;;;;;;;;;;5085874;28;20021;-85
2023/02/03 01:11:15;;;;;;;2.58;1.30;;;;;;;;;;5085720;28;20042;-84
2023/02/03 01:13:40;;;;;;;5.50;1.83;;;;;;;;;;5092490;28;20062;-84
2023/02/03 01:16:06;;;;;;;2.08;0.90;;;;;;;;;;5093714;28;20371;-84
2023/02/03 01:18:32;;;;;;;2.70;1.00;;;;;;;;;;5092453;28;20059;-84
2023/02/03 01:20:57;;;;;;;5.57;1.10;;;;;;;;;;5093751;28;20020;-85
2023/02/03 01:23:22;;;;;;;1.20;0.60;;;;;;;;;;5094465;28;20024;-84
2023/02/03 01:25:47;;;;;;;2.15;0.75;;;;;;;;;;5093330;28;20027;-84
2023/02/03 01:28:12;;;;;;;2.72;1.17;;;;;;;;;;5084476;28;20112;-84
2023/02/03 01:30:38;;;;;;;4.15;1.88;;;;;;;;;;5092452;28;20027;-84
2023/02/03 01:33:03;;;;;;;3.10;1.00;;;;;;;;;;5093884;28;20137;-84
2023/02/03 01:35:28;;;;;;;0.93;0.47;;;;;;;;;;5092157;28;20115;-85
2023/02/03 01:37:53;;;;;;;2.28;1.00;;;;;;;;;;5083987;28;20061;-84
2023/02/03 01:40:18;;;;;;;3.30;1.20;;;;;;;;;;5086183;28;20020;-85
2023/02/03 01:42:44;;;;;;;2.63;0.70;;;;;;;;;;5093671;28;20099;-84
2023/02/03 01:45:09;;;;;;;4.50;0.95;;;;;;;;;;5076771;28;20021;-84
2023/02/03 01:47:47;;;;;;;1.00;0.70;;;;;;;;;;5076145;28;20108;-84
2023/02/03 01:50:18;;;;;;;1.27;0.52;;;;;;;;;;5092017;28;20020;-84
2023/02/03 01:52:45;;;;;;;1.70;0.70;;;;;;;;;;5093668;28;20620;-84
2023/02/03 01:55:12;;;;;;;3.08;0.70;;;;;;;;;;5093351;28;20031;-84
2023/02/03 01:57:41;;;;;;;3.45;1.10;;;;;;;;;;5080126;28;20028;-84
2023/02/03 02:00:08;;;;;;;2.55;0.70;;;;;;;;;;5079599;28;20020;-84
2023/02/03 02:02:33;;;;;;;1.25;0.63;;;;;;;;;;5084014;28;20023;-84
2023/02/03 02:05:05;;;;;;;3.00;0.93;;;;;;;;;;5093041;28;20012;-84
2023/02/03 02:07:31;;;;;;;2.53;0.88;;;;;;;;;;5087914;28;20479;-84
2023/02/03 02:09:56;;;;;;;2.40;0.77;;;;;;;;;;5086257;28;20030;-84
2023/02/03 02:12:21;;;;;;;5.05;0.80;;;;;;;;;;5093199;28;20038;-84
2023/02/03 02:14:47;;;;;;;3.00;0.73;;;;;;;;;;5091210;28;20020;-84
2023/02/03 02:17:12;;;;;;;1.63;0.60;;;;;;;;;;5093061;28;20492;-84
2023/02/03 02:20:05;;;;;;;3.05;1.10;;;;;;;;;;5086313;28;20028;-84
2023/02/03 02:22:30;;;;;;;2.67;1.40;;;;;;;;;;5091350;28;20020;-84
2023/02/03 02:25:22;;;;;;;3.03;0.77;;;;;;;;;;5090530;28;20369;-84
2023/02/03 02:28:02;;;;;;;5.15;1.55;;;;;;;;;;5073093;28;20032;-84
2023/02/03 02:30:38;;;;;;;7.68;0.77;;;;;;;;;;5085700;28;20122;-84
2023/02/03 02:33:06;;;;;;;3.65;0.70;;;;;;;;;;5088024;28;20024;-85
2023/02/03 02:35:47;;;;;;;6.15;0.70;;;;;;;;;;5085542;28;20035;-84
2023/02/03 02:38:15;;;;;;;2.42;0.85;;;;;;;;;;5085272;28;20157;-84
2023/02/03 02:40:40;;;;;;;3.63;1.30;;;;;;;;;;5084962;28;20019;-84
2023/02/03 02:43:11;;;;;;;1.34;0.60;;;;;;;;;;5091361;28;20527;-84
2023/02/03 02:45:45;;;;;;;2.55;0.60;;;;;;;;;;5076197;28;20032;-84
2023/02/03 02:48:21;;;;;;;0.90;0.50;;;;;;;;;;5086345;28;20032;-85
2023/02/03 02:50:48;;;;;;;3.08;0.70;;;;;;;;;;5085220;28;20020;-83
2023/02/03 02:53:14;;;;;;;3.17;0.63;;;;;;;;;;5092354;28;20016;-84
2023/02/03 02:55:40;;;;;;;1.85;0.60;;;;;;;;;;5091940;28;20027;-85
2023/02/03 02:58:07;;;;;;;8.07;0.55;;;;;;;;;;5087854;28;20078;-84
2023/02/03 03:00:33;;;;;;;4.60;0.90;;;;;;;;;;5076397;28;20455;-84
2023/02/03 03:03:11;;;;;;;1.40;0.70;;;;;;;;;;5084875;28;20043;-83
2023/02/03 03:05:37;;;;;;;5.25;0.70;;;;;;;;;;5080419;28;20361;-83
2023/02/03 03:08:02;;;;;;;1.35;0.40;;;;;;;;;;5071478;28;20028;-84
2023/02/03 03:10:30;;;;;;;1.73;0.35;;;;;;;;;;5070928;28;20078;-83
2023/02/03 03:12:56;;;;;;;1.83;0.77;;;;;;;;;;5071632;28;20017;-84
2023/02/03 03:15:24;;;;;;;1.70;0.45;;;;;;;;;;5069932;28;20016;-84
2023/02/03 03:17:58;;;;;;;1.55;0.55;;;;;;;;;;5071413;28;20055;-84
2023/02/03 03:20:24;;;;;;;2.40;0.70;;;;;;;;;;5069292;28;20135;-83
2023/02/03 03:22:56;;;;;;;2.05;0.40;;;;;;;;;;5071718;28;20020;-84
2023/02/03 03:25:26;;;;;;;2.60;0.60;;;;;;;;;;5071458;28;20483;-84
2023/02/03 03:27:54;;;;;;;3.03;0.55;;;;;;;;;;5071028;28;20120;-84
2023/02/03 03:30:21;;;;;;;5.32;0.80;;;;;;;;;;5070553;28;20020;-84
2023/02/03 03:32:47;;;;;;;0.63;0.35;;;;;;;;;;5070392;28;20418;-84
2023/02/03 03:35:12;;;;;;;2.45;0.43;;;;;;;;;;5071731;28;20029;-84
2023/02/03 03:37:42;;;;;;;1.52;0.52;;;;;;;;;;5070547;28;20020;-84
2023/02/03 03:40:16;;;;;;;1.55;0.55;;;;;;;;;;5071076;28;20032;-84
2023/02/03 03:42:57;;;;;;;1.33;0.45;;;;;;;;;;5071201;28;20027;-84
2023/02/03 03:45:22;;;;;;;4.13;0.40;;;;;;;;;;5071226;28;20013;-84
2023/02/03 03:47:51;;;;;;;3.67;0.65;;;;;;;;;;5068188;28;20521;-83
2023/02/03 03:50:22;;;;;;;3.08;0.50;;;;;;;;;;5071243;28;20078;-84
2023/02/03 03:52:48;;;;;;;2.55;0.45;;;;;;;;;;5071291;28;20024;-83
2023/02/03 03:55:15;;;;;;;0.60;0.40;;;;;;;;;;5069873;28;20019;-84
2023/02/03 03:57:44;;;;;;;0.63;0.43;;;;;;;;;;5070146;28;20021;-84
2023/02/03 04:00:10;;;;;;;2.50;0.95;;;;;;;;;;5069790;28;20024;-84
2023/02/03 04:02:37;;;;;;;3.17;0.55;;;;;;;;;;5071005;28;20020;-84
2023/02/03 04:05:03;;;;;;;2.38;0.55;;;;;;;;;;5069549;28;20669;-84
2023/02/03 04:07:38;;;;;;;2.03;0.43;;;;;;;;;;5070948;28;20120;-84
2023/02/03 04:10:06;;;;;;;4.78;0.90;;;;;;;;;;5069420;28;20430;-84
2023/02/03 04:12:31;;;;;;;1.17;0.60;;;;;;;;;;5070970;28;20028;-84
2023/02/03 04:14:56;;;;;;;2.40;0.50;;;;;;;;;;5070736;28;20044;-84
2023/02/03 04:17:21;;;;;;;1.23;0.32;;;;;;;;;;5070704;28;20123;-83
2023/02/03 04:19:47;;;;;;;2.30;1.23;;;;;;;;;;5068244;28;20395;-84
2023/02/03 04:22:12;;;;;;;2.50;0.45;;;;;;;;;;5068188;28;20347;-84
2023/02/03 04:24:37;;;;;;;0.98;0.55;;;;;;;;;;5069690;28;20099;-84
2023/02/03 04:27:03;;;;;;;0.57;0.45;;;;;;;;;;5069532;28;20025;-84
2023/02/03 04:29:28;;;;;;;0.82;0.25;;;;;;;;;;5069474;28;20455;-84
2023/02/03 04:31:53;;;;;;;1.42;0.70;;;;;;;;;;5068460;28;20012;-84
2023/02/03 04:34:18;;;;;;;0.65;0.40;;;;;;;;;;5070600;28;20016;-83
2023/02/03 04:36:43;;;;;;;1.65;0.40;;;;;;;;;;5069393;28;20054;-83
2023/02/03 04:39:09;;;;;;;2.03;0.40;;;;;;;;;;5069279;28;20025;-86
2023/02/03 04:41:34;;;;;;;1.45;0.52;;;;;;;;;;5068553;28;20120;-86
2023/02/03 04:43:59;;;;;;;1.65;0.60;;;;;;;;;;5073009;28;20023;-86
2023/02/03 04:46:24;;;;;;;1.65;0.43;;;;;;;;;;5072562;28;20406;-86
2023/02/03 04:48:49;;;;;;;1.33;0.43;;;;;;;;;;5074374;28;20039;-87
2023/02/03 04:51:14;;;;;;;4.95;0.60;;;;;;;;;;5073871;28;20031;-84
2023/02/03 04:53:40;;;;;;;2.20;0.65;;;;;;;;;;5074526;28;20509;-84
2023/02/03 04:56:05;;;;;;;1.30;0.60;;;;;;;;;;5072955;28;20529;-84
2023/02/03 04:58:30;;;;;;;0.63;0.45;;;;;;;;;;5074005;28;20031;-84
2023/02/03 05:00:55;;;;;;;1.73;0.43;;;;;;;;;;5074115;28;20047;-83
2023/02/03 05:03:21;;;;;;;1.45;0.35;;;;;;;;;;5071179;28;20024;-83
2023/02/03 05:05:46;;;;;;;1.48;0.50;;;;;;;;;;5073926;28;20467;-84
2023/02/03 05:08:11;;;;;;;2.75;1.08;;;;;;;;;;5074154;28;20089;-84
2023/02/03 05:10:36;;;;;;;0.50;0.40;;;;;;;;;;5073810;28;20017;-84
2023/02/03 05:13:02;;;;;;;2.20;0.93;;;;;;;;;;5072325;28;20013;-84
2023/02/03 05:15:27;;;;;;;3.88;0.70;;;;;;;;;;5072724;28;20013;-84
2023/02/03 05:17:53;;;;;;;0.88;0.40;;;;;;;;;;5073012;28;20031;-84
2023/02/03 05:20:18;;;;;;;1.48;0.60;;;;;;;;;;5073688;28;20142;-84
2023/02/03 05:22:44;;;;;;;2.70;1.23;;;;;;;;;;5072580;28;20048;-84
2023/02/03 05:25:12;;;;;;;4.10;0.40;;;;;;;;;;5071285;28;20510;-84
2023/02/03 05:27:38;;;;;;;1.25;0.40;;;;;;;;;;5073526;28;20028;-84
2023/02/03 05:30:04;;;;;;;3.90;0.77;;;;;;;;;;5072226;28;20106;-84
2023/02/03 05:32:29;;;;;;;2.35;0.32;;;;;;;;;;5073660;28;20013;-84
2023/02/03 05:34:54;;;;;;;2.08;0.60;;;;;;;;;;5071034;28;20017;-84
2023/02/03 05:37:19;;;;;;;0.57;0.30;;;;;;;;;;5073312;28;20024;-84
2023/02/03 05:39:44;;;;;;;0.65;0.32;;;;;;;;;;5073018;28;20025;-84
2023/02/03 05:42:10;;;;;;;2.83;0.40;;;;;;;;;;5073311;28;20059;-84
2023/02/03 05:44:35;;;;;;;2.97;0.52;;;;;;;;;;5064723;28;20109;-84
2023/02/03 05:47:00;;;;;;;3.90;0.30;;;;;;;;;;5071963;28;20028;-84
2023/02/03 05:49:25;;;;;;;2.22;0.60;;;;;;;;;;5071766;28;20077;-84
2023/02/03 05:51:51;;;;;;;0.93;0.40;;;;;;;;;;5072047;28;20428;-84
2023/02/03 05:54:16;;;;;;;1.63;0.52;;;;;;;;;;5071478;28;20455;-84
2023/02/03 05:56:42;;;;;;;0.95;0.20;;;;;;;;;;5072231;28;20055;-84
2023/02/03 05:59:07;;;;;;;1.08;0.40;;;;;;;;;;5072244;28;20037;-84
2023/02/03 06:01:33;;;;;;;1.23;0.70;;;;;;;;;;5072959;28;20356;-84
2023/02/03 06:03:58;;;;;;;1.00;0.35;;;;;;;;;;5071734;28;20108;-84
2023/02/03 06:06:23;;;;;;;3.80;0.50;;;;;;;;;;5070406;28;20443;-84
2023/02/03 06:08:51;;;;;;;0.77;0.20;;;;;;;;;;5071375;28;20043;-83
2023/02/03 06:11:16;;;;;;;0.45;0.30;;;;;;;;;;5081926;28;20023;-84
2023/02/03 06:13:41;;;;;;;2.28;0.45;;;;;;;;;;5089797;28;20356;-84
2023/02/03 06:16:07;;;;;;;1.08;0.40;;;;;;;;;;5071858;28;20624;-84
2023/02/03 06:18:32;;;;;;;2.92;0.40;;;;;;;;;;5072153;28;20020;-84
2023/02/03 06:20:57;;;;;;;1.13;0.30;;;;;;;;;;5072502;28;20024;-84
2023/02/03 06:23:22;;;;;;;0.68;0.38;;;;;;;;;;5072772;28;20026;-84
2023/02/03 06:25:48;;;;;;;1.50;0.52;;;;;;;;;;5072287;28;20024;-84
2023/02/03 06:28:13;;;;;;;0.30;0.20;;;;;;;;;;5070700;28;20463;-84
2023/02/03 06:30:38;;;;;;;0.32;0.30;;;;;;;;;;5070258;28;20041;-84
2023/02/03 06:33:04;;;;;;;1.38;0.40;;;;;;;;;;5072512;28;20021;-83
2023/02/03 06:35:29;;;;;;;0.50;0.30;;;;;;;;;;5071986;28;20737;-84
2023/02/03 06:37:54;;;;;;;1.70;0.52;;;;;;;;;;5071377;28;20104;-84
2023/02/03 06:40:19;;;;;;;0.82;0.20;;;;;;;;;;5070763;28;20028;-84
2023/02/03 06:42:46;;;;;;;1.95;0.43;;;;;;;;;;5072241;28;20020;-84
2023/02/03 06:45:11;;;;;;;2.65;0.60;;;;;;;;;;5072025;28;20024;-84
2023/02/03 06:47:38;;;;;;;1.30;0.40;;;;;;;;;;5072086;28;20032;-83
2023/02/03 06:50:03;;;;;;;1.35;0.43;;;;;;;;;;5071043;28;20024;-84
2023/02/03 06:52:28;;;;;;;3.78;0.40;;;;;;;;;;5071927;28;20485;-84
2023/02/03 06:54:54;;;;;;;3.35;0.50;;;;;;;;;;5071817;28;20111;-80
2023/02/03 06:57:19;;;;;;;2.25;0.50;;;;;;;;;;5068983;28;20020;-80
2023/02/03 06:59:44;;;;;;;2.83;0.40;;;;;;;;;;5069658;28;20478;-80
2023/02/03 07:02:10;;;;;;;1.35;0.50;;;;;;;;;;5066347;28;20043;-80
2023/02/03 07:04:37;;;;;;;0.95;0.40;;;;;;;;;;5069545;28;20020;-80
2023/02/03 07:07:02;;;;;;;0.45;0.28;;;;;;;;;;5071361;28;20028;-80
2023/02/03 07:09:28;;;;;;;6.65;0.40;;;;;;;;;;5071571;28;20494;-80
2023/02/03 07:11:53;;;;;;;1.23;0.40;;;;;;;;;;5070452;28;20020;-80
2023/02/03 07:14:18;;;;;;;0.50;0.28;;;;;;;;;;5071277;28;20044;-80
2023/02/03 07:16:43;;;;;;;1.90;0.40;;;;;;;;;;5071013;28;20051;-79
2023/02/03 07:19:08;;;;;;;0.93;0.40;;;;;;;;;;5071013;28;20028;-80
2023/02/03 07:21:34;;;;;;;0.50;0.30;;;;;;;;;;5070267;28;20032;-80
2023/02/03 07:24:01;;;;;;;0.85;0.30;;;;;;;;;;5069304;28;20349;-80
2023/02/03 07:26:26;;;;;;;0.90;0.30;;;;;;;;;;5070034;28;20020;-80
2023/02/03 07:28:51;;;;;;;3.15;0.52;;;;;;;;;;5070004;28;20070;-80
2023/02/03 07:31:17;;;;;;;1.23;0.40;;;;;;;;;;5067918;28;20074;-80
2023/02/03 07:33:42;;;;;;;0.95;0.50;;;;;;;;;;5066519;28;20024;-80
2023/02/03 07:36:09;;;;;;;1.95;0.50;;;;;;;;;;5065489;28;20082;-80
2023/02/03 07:38:34;;;;;;;1.33;0.47;;;;;;;;;;5065990;28;20104;-80
2023/02/03 07:40:59;;;;;;;1.00;0.30;;;;;;;;;;5070043;28;20107;-79
2023/02/03 07:43:24;;;;;;;0.90;0.40;;;;;;;;;;5070814;28;20036;-80
2023/02/03 07:45:49;;;;;;;1.20;0.50;;;;;;;;;;5067819;28;20040;-79
2023/02/03 07:48:15;;;;;;;4.18;0.50;;;;;;;;;;5070445;28;20026;-80
2023/02/03 07:50:40;;;;;;;0.85;0.40;;;;;;;;;;5060001;28;20033;-80
2023/02/03 07:53:08;;;;;;;0.73;0.20;;;;;;;;;;5069948;28;20428;-80
2023/02/03 07:55:33;;;;;;;0.73;0.30;;;;;;;;;;5065877;28;20297;-80
2023/02/03 07:57:59;;;;;;;0.75;0.35;;;;;;;;;;5067659;28;20017;-80
2023/02/03 08:00:24;;;;;;;1.05;0.30;;;;;;;;;;5063538;28;20070;-80
2023/02/03 08:02:49;;;;;;;0.70;0.35;;;;;;;;;;5062352;28;20070;-80
2023/02/03 08:05:15;;;;;;;1.08;0.40;;;;;;;;;;5066994;28;20013;-80
2023/02/03 08:07:40;;;;;;;0.40;0.40;;;;;;;;;;5068606;28;20032;-80
2023/02/03 08:10:06;;;;;;;2.83;0.45;;;;;;;;;;5070585;28;20092;-80
2023/02/03 08:12:32;;;;;;;3.08;0.60;;;;;;;;;;5068332;28;20016;-79
2023/02/03 08:14:57;;;;;;;0.55;0.38;;;;;;;;;;5070572;28;20024;-79
2023/02/03 08:17:22;;;;;;;1.75;0.60;;;;;;;;;;5066259;28;20024;-80
2023/02/03 08:19:47;;;;;;;2.13;0.43;;;;;;;;;;5068598;28;20111;-80
2023/02/03 08:22:15;;;;;;;1.13;0.50;;;;;;;;;;5074481;28;20016;-80
2023/02/03 08:24:44;;;;;;;1.90;0.40;;;;;;;;;;5073148;28;20021;-80
2023/02/03 08:27:09;;;;;;;3.10;1.20;;;;;;;;;;5071986;28;20025;-80
2023/02/03 08:29:34;;;;;;;2.63;0.50;;;;;;;;;;5070412;28;20108;-79
2023/02/03 08:32:00;;;;;;;0.90;0.40;;;;;;;;;;5073379;28;20052;-80
2023/02/03 08:34:25;;;;;;;4.40;0.70;;;;;;;;;;5073024;28;20038;-80
2023/02/03 08:36:50;;;;;;;0.90;0.30;;;;;;;;;;5072422;28;20066;-79
2023/02/03 08:39:15;;;;;;;1.15;0.43;;;;;;;;;;5074309;28;20013;-79
2023/02/03 08:41:40;;;;;;;3.08;0.65;;;;;;;;;;5063519;28;20115;-79
2023/02/03 08:44:06;;;;;;;2.42;0.52;;;;;;;;;;5065336;28;20422;-79
2023/02/03 08:46:32;;;;;;;1.90;0.47;;;;;;;;;;5073140;28;20020;-79
2023/02/03 08:48:57;;;;;;;1.63;0.60;;;;;;;;;;5072402;28;20033;-80
2023/02/03 08:51:23;;;;;;;0.52;0.40;;;;;;;;;;5074313;28;20012;-80
2023/02/03 08:53:48;;;;;;;1.17;0.30;;;;;;;;;;5074294;28;20017;-80
2023/02/03 08:56:13;;;;;;;1.45;0.30;;;;;;;;;;5073421;28;20024;-80
2023/02/03 08:58:39;;;;;;;1.80;0.50;;;;;;;;;;5073002;28;20036;-80
2023/02/03 09:01:05;;;;;;;0.77;0.40;;;;;;;;;;5073843;28;20355;-80
2023/02/03 09:03:30;;;;;;;0.30;0.20;;;;;;;;;;5071818;28;20024;-79
2023/02/03 09:05:56;;;;;;;2.47;0.77;;;;;;;;;;5071468;28;20059;-79
2023/02/03 09:08:21;;;;;;;0.57;0.38;;;;;;;;;;5071576;28;20404;-80
2023/02/03 09:10:46;;;;;;;1.13;0.60;;;;;;;;;;5068998;28;20091;-79
2023/02/03 09:13:11;;;;;;;1.15;0.73;;;;;;;;;;5062365;28;20032;-79
2023/02/03 09:15:37;;;;;;;0.98;0.60;;;;;;;;;;5073040;28;20425;-80
2023/02/03 09:18:02;;;;;;;2.03;0.73;;;;;;;;;;5074054;28;20543;-80
2023/02/03 09:20:27;;;;;;;3.10;1.27;;;;;;;;;;5073552;28;20028;-80
2023/02/03 09:22:53;;;;;;;2.55;0.80;;;;;;;;;;5074020;28;20050;-79
2023/02/03 09:25:19;;;;;;;2.10;1.00;;;;;;;;;;5073493;28;20088;-80
2023/02/03 09:27:44;;;;;;;3.53;0.80;;;;;;;;;;5072745;28;20036;-79
2023/02/03 09:30:09;;;;;;;1.08;0.90;;;;;;;;;;5072319;28;20446;-79
2023/02/03 09:32:35;;;;;;;1.73;0.73;;;;;;;;;;5073318;28;20463;-79
2023/02/03 09:35:00;;;;;;;2.83;0.70;;;;;;;;;;5071379;28;20056;-79
2023/02/03 09:37:27;;;;;;;1.30;0.70;;;;;;;;;;5073136;28;20013;-79
2023/02/03 09:39:53;;;;;;;1.15;0.70;;;;;;;;;;5073435;28;20027;-80
2023/02/03 09:42:18;;;;;;;3.17;1.08;;;;;;;;;;5072367;28;20095;-79
2023/02/03 09:44:49;;;;;;;5.00;0.93;;;;;;;;;;5067742;28;20029;-80
2023/02/03 09:47:20;;;;;;;2.28;1.10;;;;;;;;;;5072113;28;20369;-79
2023/02/03 09:49:49;;;;;;;2.10;0.70;;;;;;;;;;5073136;28;20077;-80
2023/02/03 09:52:17;;;;;;;6.90;1.10;;;;;;;;;;5072098;28;20184;-80
2023/02/03 09:55:00;;;;;;;2.53;0.95;;;;;;;;;;5072259;28;20499;-79
2023/02/03 09:57:26;;;;;;;4.07;0.93;;;;;;;;;;5073349;28;20102;-80
2023/02/03 09:59:53;;;;;;;2.03;0.80;;;;;;;;;;5071631;28;20028;-80
2023/02/03 10:02:18;;;;;;;2.22;0.95;;;;;;;;;;5072412;28;20035;-79
2023/02/03 10:04:51;;;;;;;1.02;0.68;;;;;;;;;;5071429;28;20032;-79
2023/02/03 10:07:24;;;;;;;1.23;0.70;;;;;;;;;;5071807;28;20021;-80
2023/02/03 10:09:58;;;;;;;1.25;1.00;;;;;;;;;;5071431;28;20462;-79
2023/02/03 10:12:32;;;;;;;3.72;0.68;;;;;;;;;;5072886;28;20020;-80
2023/02/03 10:14:58;;;;;;;4.13;1.15;;;;;;;;;;5071451;28;20066;-79
2023/02/03 10:17:29;;;;;;;2.28;1.00;;;;;;;;;;5072888;28;20008;-79
2023/02/03 10:20:01;;;;;;;2.00;1.00;;;;;;;;;;5072037;28;20093;-80
2023/02/03 10:22:27;;;;;;;1.98;1.02;;;;;;;;;;5072685;28;20016;-80
2023/02/03 10:25:04;;;;;;;4.75;1.80;;;;;;;;;;5072392;28;20028;-80
2023/02/03 10:27:31;;;;;;;1.85;1.20;;;;;;;;;;5070627;28;20081;-80
2023/02/03 10:30:05;;;;;;;2.15;1.27;;;;;;;;;;5061805;28;20417;-79
2023/02/03 10:32:30;;;;;;;1.10;0.75;;;;;;;;;;5066776;28;20114;-80
2023/02/03 10:34:56;;;;;;;1.75;1.15;;;;;;;;;;5070888;28;20033;-79
2023/02/03 10:37:50;;;;;;;1.27;0.73;;;;;;;;;;5071047;28;20020;-80
2023/02/03 10:40:16;;;;;;;2.80;1.08;;;;;;;;;;5063195;28;20033;-79
2023/02/03 10:45:32;;;;;;;4.00;1.02;;;;;;;;;;5071407;28;20043;-80
2023/02/03 10:47:57;;;;;;;4.00;0.90;;;;;;;;;;5072139;28;20044;-79
2023/02/03 10:50:30;;;;;;;4.53;1.67;;;;;;;;;;5072068;28;20040;-80
2023/02/03 10:52:55;;;;;;;;;;;;;;;;;;5071576;28;20067;-80
2023/02/03 10:55:21;;;;;;;6.28;1.10;;;;;;;;;;5071833;28;20267;-80
2023/02/03 10:57:46;;;;;;;2.03;0.98;;;;;;;;;;5072014;28;20295;-80
2023/02/03 11:00:28;;;;;;;4.20;1.35;;;;;;;;;;5072048;28;20470;-80
2023/02/03 11:02:59;;;;;;;4.63;1.75;;;;;;;;;;5070673;28;20060;-79
2023/02/03 11:05:25;;;;;;;3.20;0.83;;;;;;;;;;5070403;28;20356;-80
2023/02/03 11:07:51;;;;;;;3.00;1.10;;;;;;;;;;5070083;28;20035;-80
2023/02/03 11:10:25;;;;;;;0.95;0.55;;;;;;;;;;5069406;28;20083;-80
2023/02/03 11:12:51;;;;;;;2.55;1.20;;;;;;;;;;5068524;28;20013;-79
2023/02/03 11:15:16;;;;;;;3.55;1.30;;;;;;;;;;5068827;28;20020;-79
2023/02/03 11:17:42;;;;;;;2.22;1.00;;;;;;;;;;5070172;28;20447;-80
2023/02/03 11:20:15;;;;;;;2.50;0.98;;;;;;;;;;5070701;28;20064;-81
2023/02/03 11:22:42;;;;;;;1.95;0.77;;;;;;;;;;5070239;28;20391;-80
2023/02/03 11:25:17;;;;;;;5.75;0.90;;;;;;;;;;5070666;28;20027;-80
2023/02/03 11:27:43;;;;;;;1.45;0.80;;;;;;;;;;5058020;28;20123;-79
2023/02/03 11:30:12;;;;;;;1.65;0.88;;;;;;;;;;5071452;28;20048;-80
2023/02/03 11:32:40;;;;;;;1.75;0.75;;;;;;;;;;5070614;28;20089;-80
2023/02/03 11:35:24;;;;;;;8.02;0.70;;;;;;;;;;5071404;28;20016;-80
2023/02/03 11:37:51;;;;;;;1.45;0.60;;;;;;;;;;5071804;28;20060;-80
2023/02/03 11:40:19;;;;;;;1.42;0.77;;;;;;;;;;5071543;28;20032;-80
2023/02/03 11:42:57;;;;;;;3.15;1.00;;;;;;;;;;5064178;28;20060;-79
2023/02/03 11:45:27;;;;;;;0.98;0.77;;;;;;;;;;5063755;28;20065;-80
2023/02/03 11:47:54;;;;;;;2.70;0.82;;;;;;;;;;5067920;28;20036;-80
2023/02/03 11:50:27;;;;;;;0.50;0.47;;;;;;;;;;5066844;28;20036;-80
2023/02/03 11:53:12;;;;;;;1.40;0.63;;;;;;;;;;5064219;28;20013;-80
2023/02/03 11:55:56;;;;;;;1.63;0.60;;;;;;;;;;5066903;28;20398;-80
2023/02/03 11:58:34;;;;;;;2.25;0.60;;;;;;;;;;5058145;28;20070;-80
2023/02/03 12:00:59;;;;;;;2.05;0.77;;;;;;;;;;5069876;28;20036;-80
2023/02/03 12:03:24;;;;;;;1.63;0.70;;;;;;;;;;5069081;28;20020;-79
2023/02/03 12:05:52;;;;;;;3.75;0.70;;;;;;;;;;5067019;28;20375;-79
2023/02/03 12:08:36;;;;;;;2.78;1.10;;;;;;;;;;5068905;28;20048;-80
2023/02/03 12:11:01;;;;;;;1.98;1.02;;;;;;;;;;5070674;28;20060;-79
2023/02/03 12:13:45;;;;;;;1.70;0.90;;;;;;;;;;5070880;28;20043;-79
2023/02/03 12:16:10;;;;;;;1.48;0.77;;;;;;;;;;5069352;28;20092;-80
2023/02/03 12:18:55;;;;;;;1.17;0.57;;;;;;;;;;5065661;28;20595;-79
2023/02/03 12:21:20;;;;;;;2.92;0.60;;;;;;;;;;5069531;28;20154;-80
2023/02/03 12:23:51;;;;;;;2.13;0.80;;;;;;;;;;5070130;28;20100;-80
2023/02/03 12:26:22;;;;;;;0.60;0.50;;;;;;;;;;5070468;28;20020;-79
2023/02/03 12:29:06;;;;;;;2.00;0.60;;;;;;;;;;5069049;28;20025;-80
2023/02/03 12:31:47;;;;;;;2.03;0.65;;;;;;;;;;5067136;28;20115;-80
2023/02/03 12:34:21;;;;;;;3.88;1.58;;;;;;;;;;5067837;28;20111;-79
2023/02/03 12:36:49;;;;;;;2.78;0.70;;;;;;;;;;5070701;28;20062;-80
2023/02/03 12:39:25;;;;;;;2.58;0.60;;;;;;;;;;5070429;28;20078;-80
2023/02/03 12:41:55;;;;;;;2.67;0.60;;;;;;;;;;5069895;28;20023;-80
2023/02/03 12:44:53;;;;;;;0.73;0.40;;;;;;;;;;5066930;28;20036;-80
2023/02/03 12:47:33;;;;;;;5.28;1.13;;;;;;;;;;5043154;28;20048;-79
2023/02/03 12:50:01;;;;;;;1.00;0.47;;;;;;;;;;5056927;28;20024;-80
2023/02/03 12:52:32;;;;;;;2.63;0.73;;;;;;;;;;5069803;28;20019;-80
2023/02/03 12:55:00;;;;;;;0.40;0.35;;;;;;;;;;5068818;28;20405;-80
2023/02/03 12:57:34;;;;;;;3.95;0.80;;;;;;;;;;5069496;28;20078;-80
2023/02/03 13:00:08;;;;;;;1.33;0.60;;;;;;;;;;5090733;28;20120;-79
2023/02/03 13:02:53;;;;;;;2.30;0.60;;;;;;;;;;5080338;28;20048;-79
2023/02/03 13:05:23;;;;;;;1.20;0.50;;;;;;;;;;5073408;28;20039;-80
2023/02/03 13:07:51;;;;;;;1.35;0.70;;;;;;;;;;5089591;28;20024;-80
2023/02/03 13:10:16;;;;;;;0.50;0.50;;;;;;;;;;5094369;28;20083;-80
2023/02/03 13:12:53;;;;;;;2.08;0.57;;;;;;;;;;5084500;28;20104;-80
2023/02/03 13:15:39;;;;;;;1.17;0.40;;;;;;;;;;5069825;28;20036;-80
2023/02/03 13:18:09;;;;;;;1.10;0.60;;;;;;;;;;5070896;28;20059;-80
2023/02/03 13:20:35;;;;;;;1.08;0.75;;;;;;;;;;5073664;28;20024;-80
2023/02/03 13:23:06;;;;;;;0.80;0.60;;;;;;;;;;5071226;28;20111;-79
2023/02/03 13:25:50;;;;;;;0.80;0.63;;;;;;;;;;5071179;28;20051;-80
2023/02/03 13:28:24;;;;;;;3.30;0.70;;;;;;;;;;5071767;28;20472;-80
2023/02/03 13:31:07;;;;;;;0.75;0.55;;;;;;;;;;5073716;28;20019;-80
2023/02/03 13:33:41;;;;;;;0.52;0.50;;;;;;;;;;5072158;28;20375;-80
2023/02/03 13:36:19;;;;;;;4.47;1.90;;;;;;;;;;5072148;28;20067;-80
2023/02/03 13:39:03;;;;;;;0.80;0.50;;;;;;;;;;5070052;28;20028;-80
2023/02/03 13:41:43;;;;;;;2.65;0.82;;;;;;;;;;5060189;28;20028;-80
2023/02/03 13:44:12;;;;;;;1.83;0.85;;;;;;;;;;5073140;28;20044;-80
2023/02/03 13:46:38;;;;;;;1.55;0.63;;;;;;;;;;5057810;28;20024;-80
2023/02/03 13:49:04;;;;;;;5.05;0.80;;;;;;;;;;5072649;28;20120;-80
2023/02/03 13:51:33;;;;;;;1.00;0.65;;;;;;;;;;5069085;28;20525;-80
2023/02/03 13:54:04;;;;;;;1.05;0.70;;;;;;;;;;5072917;28;20039;-80
2023/02/03 13:56:30;;;;;;;2.30;0.80;;;;;;;;;;5068949;28;20023;-80
2023/02/03 13:59:00;;;;;;;1.77;1.00;;;;;;;;;;5066392;28;20527;-80
2023/02/03 14:01:27;;;;;;;1.90;0.73;;;;;;;;;;5071886;28;20032;-80
2023/02/03 14:03:52;;;;;;;3.72;1.20;;;;;;;;;;5073431;28;20036;-80
2023/02/03 14:06:47;;;;;;;1.45;0.60;;;;;;;;;;5084406;28;20024;-80
2023/02/03 14:09:20;;;;;;;3.50;1.30;;;;;;;;;;5066804;28;20040;-80
2023/02/03 14:11:48;;;;;;;1.92;0.73;;;;;;;;;;5071530;28;20028;-80
2023/02/03 14:14:15;;;;;;;1.23;0.77;;;;;;;;;;5065583;28;20107;-80
2023/02/03 14:16:42;;;;;;;1.08;0.68;;;;;;;;;;5070202;28;20040;-80
2023/02/03 14:19:32;;;;;;;1.23;0.85;;;;;;;;;;5071823;28;20028;-80
2023/02/03 14:22:02;;;;;;;2.47;0.90;;;;;;;;;;5072416;28;20017;-80
2023/02/03 14:24:33;;;;;;;2.13;0.90;;;;;;;;;;5070316;28;20431;-80
2023/02/03 14:26:59;;;;;;;1.70;0.88;;;;;;;;;;5071074;28;20460;-80
2023/02/03 14:29:35;;;;;;;1.55;1.10;;;;;;;;;;5071947;28;20432;-80
2023/02/03 14:32:02;;;;;;;2.83;1.08;;;;;;;;;;5072201;28;20105;-79
2023/02/03 14:34:29;;;;;;;1.52;0.82;;;;;;;;;;5071692;28;20433;-80
2023/02/03 14:36:54;;;;;;;1.33;0.80;;;;;;;;;;5068995;28;20039;-81
2023/02/03 14:39:20;;;;;;;2.70;0.90;;;;;;;;;;5069353;28;20020;-80
2023/02/03 14:41:48;;;;;;;3.40;0.90;;;;;;;;;;5069325;28;20035;-79
2023/02/03 14:44:16;;;;;;;1.35;0.68;;;;;;;;;;5071440;28;20150;-80
2023/02/03 14:47:03;;;;;;;1.40;0.50;;;;;;;;;;5071764;28;20218;-79
2023/02/03 14:49:28;;;;;;;1.35;0.70;;;;;;;;;;5071282;28;20022;-79
2023/02/03 14:52:06;;;;;;;1.05;0.70;;;;;;;;;;5068291;28;20471;-79